Ridgeway, Connecticut
Current Conditions -  °F | °C
As of 8:56 AM on Thursday 23 Oct 2014 (Local Time) from KHPN Reporting Station
Haze Haze  
Wind Chill: 41°   Ceiling: 1200
Heat Index: 48°   Visibility: 6mi
Dew Point: 44°   Wind: 21mph
Humidity: 86%   Direction: 340°NNW
Pressure: 29.67"   Gusts: 30mph
Location:  41.0876°N, 73.5444°W
Report Text: KHPN 231256Z 34018G26KT 6SM BR SCT008 BKN012 09/07 A2967 RMK AO2 PK WND 35026/1254 RAE46 SLP050 P0003 T00890067
Loading
Personal Weather Stations






























Interactive Weather Map
Tropical Storm Tracking
New forecast layout! Learn more

10-Day Weather Forecast

Advertisements
Track Severe Weather on mobile